Time;durP1;ratioP1;P1;durP2;ratioP2;P2;SDS_P1;SDS_P2;PMS_P1;PMS_P2;Temp;Humidity;BMP_temperature;BMP_pressure;BME280_temperature;BME280_humidity;BME280_pressure;Samples;Min_cycle;Max_cycle;Signal;HPM_P1;HPM_P2
2023/07/14 00:00:08;;;;;;;5.87;3.30;;;;;;;;;;5095783;28;20450;-80
2023/07/14 00:02:35;;;;;;;4.47;2.63;;;;;;;;;;5107924;28;20497;-80
2023/07/14 00:05:01;;;;;;;3.93;2.77;;;;;;;;;;5101033;28;20415;-79
2023/07/14 00:07:27;;;;;;;6.40;2.60;;;;;;;;;;5096003;28;20399;-83
2023/07/14 00:09:52;;;;;;;5.53;3.07;;;;;;;;;;5096765;28;20410;-80
2023/07/14 00:12:18;;;;;;;3.83;2.10;;;;;;;;;;5095811;28;20384;-80
2023/07/14 00:14:45;;;;;;;7.10;3.57;;;;;;;;;;5095727;28;20414;-80
2023/07/14 00:17:12;;;;;;;7.00;2.60;;;;;;;;;;5095424;28;20990;-80
2023/07/14 00:19:38;;;;;;;8.63;2.60;;;;;;;;;;5078574;28;20884;-80
2023/07/14 00:22:14;;;;;;;4.57;2.50;;;;;;;;;;5096459;28;20398;-80
2023/07/14 00:24:41;;;;;;;7.00;2.80;;;;;;;;;;5096352;28;20457;-80
2023/07/14 00:27:15;;;;;;;3.63;2.70;;;;;;;;;;5095281;28;20401;-80
2023/07/14 00:29:42;;;;;;;3.70;2.37;;;;;;;;;;5095970;28;20406;-80
2023/07/14 00:32:21;;;;;;;3.90;2.73;;;;;;;;;;5078627;28;20469;-80
2023/07/14 00:34:47;;;;;;;6.23;3.13;;;;;;;;;;5095286;28;20400;-80
2023/07/14 00:37:13;;;;;;;7.63;2.97;;;;;;;;;;5096448;28;20735;-80
2023/07/14 00:39:40;;;;;;;4.00;2.67;;;;;;;;;;5096492;28;20417;-80
2023/07/14 00:42:11;;;;;;;4.43;2.80;;;;;;;;;;5096123;28;20369;-80
2023/07/14 00:44:37;;;;;;;4.60;2.70;;;;;;;;;;5094717;28;20484;-80
2023/07/14 00:47:05;;;;;;;6.27;2.47;;;;;;;;;;5095836;28;20746;-80
2023/07/14 00:49:40;;;;;;;6.60;2.50;;;;;;;;;;5095618;28;20457;-80
2023/07/14 00:52:12;;;;;;;3.97;3.07;;;;;;;;;;5095001;28;20380;-80
2023/07/14 00:54:39;;;;;;;8.27;3.40;;;;;;;;;;5095983;28;20423;-80
2023/07/14 00:57:05;;;;;;;4.10;3.00;;;;;;;;;;5095937;28;20403;-79
2023/07/14 00:59:33;;;;;;;6.17;2.87;;;;;;;;;;5094329;28;20385;-80
2023/07/14 01:02:15;;;;;;;5.90;2.03;;;;;;;;;;5094704;28;20445;-80
2023/07/14 01:04:44;;;;;;;6.77;2.70;;;;;;;;;;5094280;28;20423;-80
2023/07/14 01:07:11;;;;;;;4.03;2.30;;;;;;;;;;5094514;28;20423;-80
2023/07/14 01:09:37;;;;;;;5.83;2.83;;;;;;;;;;5094161;28;20385;-80
2023/07/14 01:12:04;;;;;;;3.00;2.70;;;;;;;;;;5095610;28;20384;-80
2023/07/14 01:14:34;;;;;;;5.17;2.40;;;;;;;;;;5094091;28;20472;-80
2023/07/14 01:17:01;;;;;;;4.47;2.70;;;;;;;;;;5095202;28;20548;-79
2023/07/14 01:19:40;;;;;;;3.20;2.30;;;;;;;;;;5093948;28;20425;-80
2023/07/14 01:22:36;;;;;;;8.27;2.43;;;;;;;;;;5094017;28;20425;-80
2023/07/14 01:25:20;;;;;;;7.40;2.67;;;;;;;;;;5077939;28;20445;-80
2023/07/14 01:27:47;;;;;;;4.80;2.23;;;;;;;;;;5095290;28;20418;-80
2023/07/14 01:30:14;;;;;;;3.30;2.37;;;;;;;;;;5095717;28;20426;-79
2023/07/14 01:32:42;;;;;;;6.50;2.93;;;;;;;;;;5095016;28;20376;-80
2023/07/14 01:35:09;;;;;;;2.80;2.40;;;;;;;;;;5095105;28;20735;-80
2023/07/14 01:37:36;;;;;;;5.80;2.60;;;;;;;;;;5076761;28;20381;-80
2023/07/14 01:40:05;;;;;;;4.27;2.50;;;;;;;;;;5095160;28;20406;-80
2023/07/14 01:42:31;;;;;;;3.30;2.10;;;;;;;;;;5095057;28;20440;-80
2023/07/14 01:44:57;;;;;;;3.33;2.30;;;;;;;;;;5095052;28;20818;-79
2023/07/14 01:47:23;;;;;;;2.70;2.50;;;;;;;;;;5093918;28;20394;-80
2023/07/14 01:49:51;;;;;;;5.37;2.30;;;;;;;;;;5093321;28;20436;-80
2023/07/14 01:52:23;;;;;;;2.93;2.23;;;;;;;;;;5095474;28;20476;-79
2023/07/14 01:54:52;;;;;;;4.07;2.10;;;;;;;;;;5094572;28;20468;-80
2023/07/14 01:57:20;;;;;;;3.60;2.10;;;;;;;;;;5093854;28;20405;-80
2023/07/14 01:59:52;;;;;;;3.80;2.93;;;;;;;;;;5094799;28;20410;-80
2023/07/14 02:02:24;;;;;;;4.60;2.70;;;;;;;;;;5094689;28;20886;-80
2023/07/14 02:04:51;;;;;;;5.37;2.77;;;;;;;;;;5097252;28;20439;-80
2023/07/14 02:07:18;;;;;;;3.53;2.87;;;;;;;;;;5080846;28;20465;-79
2023/07/14 02:09:44;;;;;;;5.20;2.60;;;;;;;;;;5093751;28;20411;-80
2023/07/14 02:12:13;;;;;;;4.20;2.47;;;;;;;;;;5094048;28;20744;-80
2023/07/14 02:15:00;;;;;;;2.90;2.20;;;;;;;;;;5094926;28;20751;-80
2023/07/14 02:17:30;;;;;;;5.47;3.03;;;;;;;;;;5094867;28;20402;-80
2023/07/14 02:19:57;;;;;;;3.60;3.07;;;;;;;;;;5094932;28;20500;-80
2023/07/14 02:22:24;;;;;;;5.57;2.80;;;;;;;;;;5094972;28;20373;-80
2023/07/14 02:24:50;;;;;;;3.87;2.63;;;;;;;;;;5093981;28;20447;-80
2023/07/14 02:27:19;;;;;;;3.77;2.73;;;;;;;;;;5098264;28;20874;-80
2023/07/14 02:29:45;;;;;;;7.47;2.60;;;;;;;;;;5097039;28;20388;-80
2023/07/14 02:32:33;;;;;;;6.70;3.03;;;;;;;;;;5097703;28;20414;-80
2023/07/14 02:35:02;;;;;;;4.03;2.70;;;;;;;;;;5098613;28;20406;-80
2023/07/14 02:37:42;;;;;;;4.80;3.33;;;;;;;;;;5099351;28;20369;-80
2023/07/14 02:40:10;;;;;;;5.50;2.70;;;;;;;;;;5099380;28;20386;-80
2023/07/14 02:42:39;;;;;;;4.37;2.50;;;;;;;;;;5097902;28;20389;-80
2023/07/14 02:45:07;;;;;;;3.50;2.87;;;;;;;;;;5099141;28;20408;-80
2023/07/14 02:47:35;;;;;;;4.30;3.17;;;;;;;;;;5080624;28;20381;-80
2023/07/14 02:50:01;;;;;;;5.83;2.20;;;;;;;;;;5097062;28;20500;-80
2023/07/14 02:52:27;;;;;;;5.37;2.43;;;;;;;;;;5099101;28;20389;-80
2023/07/14 02:54:52;;;;;;;2.70;2.50;;;;;;;;;;5098823;28;20392;-80
2023/07/14 02:57:18;;;;;;;4.53;2.67;;;;;;;;;;5098746;28;20434;-80
2023/07/14 02:59:44;;;;;;;5.47;2.73;;;;;;;;;;5098537;28;20398;-80
2023/07/14 03:02:10;;;;;;;4.33;2.57;;;;;;;;;;5097306;28;20933;-80
2023/07/14 03:04:36;;;;;;;5.13;2.57;;;;;;;;;;5097590;28;20436;-80
2023/07/14 03:07:03;;;;;;;3.37;2.80;;;;;;;;;;5098093;28;20417;-80
2023/07/14 03:09:29;;;;;;;3.90;3.00;;;;;;;;;;5097553;28;20381;-80
2023/07/14 03:11:54;;;;;;;3.53;2.60;;;;;;;;;;5096880;28;20412;-80
2023/07/14 03:14:20;;;;;;;3.40;2.77;;;;;;;;;;5097454;28;20418;-80
2023/07/14 03:16:46;;;;;;;3.50;3.20;;;;;;;;;;5098151;28;20917;-80
2023/07/14 03:19:12;;;;;;;3.40;2.30;;;;;;;;;;5097461;28;20406;-80
2023/07/14 03:21:38;;;;;;;4.87;2.80;;;;;;;;;;5080094;28;20497;-82
2023/07/14 03:24:05;;;;;;;3.80;3.27;;;;;;;;;;5097337;28;20461;-79
2023/07/14 03:26:32;;;;;;;5.27;2.90;;;;;;;;;;5096996;28;20400;-80
2023/07/14 03:28:58;;;;;;;4.30;2.60;;;;;;;;;;5096679;28;20421;-79
2023/07/14 03:31:24;;;;;;;3.40;2.70;;;;;;;;;;5098161;28;20411;-79
2023/07/14 03:33:50;;;;;;;5.03;3.27;;;;;;;;;;5096077;28;20414;-80
2023/07/14 03:36:20;;;;;;;6.40;3.27;;;;;;;;;;5096626;28;20425;-79
2023/07/14 03:38:46;;;;;;;3.37;2.80;;;;;;;;;;5080084;28;20485;-80
2023/07/14 03:41:13;;;;;;;4.90;2.70;;;;;;;;;;5080126;28;20496;-80
2023/07/14 03:43:39;;;;;;;6.87;3.23;;;;;;;;;;5096230;28;20466;-79
2023/07/14 03:46:06;;;;;;;4.90;3.73;;;;;;;;;;5097682;28;20381;-79
2023/07/14 03:48:32;;;;;;;4.30;3.60;;;;;;;;;;5096234;28;20926;-79
2023/07/14 03:51:01;;;;;;;3.80;3.10;;;;;;;;;;5095854;28;20446;-79
2023/07/14 03:53:28;;;;;;;7.70;3.20;;;;;;;;;;5096589;28;20419;-79
2023/07/14 03:55:53;;;;;;;5.20;3.10;;;;;;;;;;5079586;28;20434;-80
2023/07/14 03:58:20;;;;;;;11.80;2.97;;;;;;;;;;5096493;28;20464;-79
2023/07/14 04:00:45;;;;;;;3.70;2.80;;;;;;;;;;5097394;28;20422;-79
2023/07/14 04:03:11;;;;;;;7.83;2.83;;;;;;;;;;5097540;28;20474;-79
2023/07/14 04:05:37;;;;;;;5.73;3.27;;;;;;;;;;5097674;28;20481;-80
2023/07/14 04:08:03;;;;;;;4.03;3.10;;;;;;;;;;5100973;28;20403;-79
2023/07/14 04:10:30;;;;;;;8.40;3.70;;;;;;;;;;5081674;28;20437;-79
2023/07/14 04:12:59;;;;;;;6.53;3.90;;;;;;;;;;5095829;28;20410;-79
2023/07/14 04:15:25;;;;;;;3.30;2.87;;;;;;;;;;5097962;28;20451;-79
2023/07/14 04:17:51;;;;;;;7.30;3.40;;;;;;;;;;5097352;28;20402;-80
2023/07/14 04:20:17;;;;;;;4.30;3.70;;;;;;;;;;5096138;28;20962;-79
2023/07/14 04:22:43;;;;;;;4.60;3.20;;;;;;;;;;5097188;28;20735;-81
2023/07/14 04:25:09;;;;;;;6.17;3.40;;;;;;;;;;5097423;28;20387;-79
2023/07/14 04:27:36;;;;;;;5.73;3.67;;;;;;;;;;5079231;28;20429;-79
2023/07/14 04:30:03;;;;;;;4.27;3.20;;;;;;;;;;5095442;28;20601;-79
2023/07/14 04:32:29;;;;;;;3.40;2.83;;;;;;;;;;5097020;28;20384;-79
2023/07/14 04:34:55;;;;;;;4.23;2.90;;;;;;;;;;5096874;28;20441;-79
2023/07/14 04:37:21;;;;;;;3.33;3.03;;;;;;;;;;5095690;28;20396;-79
2023/07/14 04:39:47;;;;;;;4.20;3.70;;;;;;;;;;5078616;28;20385;-80
2023/07/14 04:42:13;;;;;;;6.23;4.50;;;;;;;;;;5095619;28;20446;-79
2023/07/14 04:44:39;;;;;;;8.83;3.47;;;;;;;;;;5095524;28;20462;-79
2023/07/14 04:47:06;;;;;;;3.63;3.33;;;;;;;;;;5078683;28;20805;-79
2023/07/14 04:49:32;;;;;;;4.60;3.23;;;;;;;;;;5095178;28;20925;-79
2023/07/14 04:51:58;;;;;;;4.30;2.97;;;;;;;;;;5095329;28;20380;-79
2023/07/14 04:54:24;;;;;;;3.90;2.80;;;;;;;;;;5097148;28;20761;-79
2023/07/14 04:56:51;;;;;;;5.13;3.20;;;;;;;;;;5078263;28;20443;-79
2023/07/14 04:59:17;;;;;;;4.27;3.23;;;;;;;;;;5095097;28;20413;-79
2023/07/14 05:01:44;;;;;;;3.53;3.03;;;;;;;;;;5096788;28;20842;-79
2023/07/14 05:04:10;;;;;;;3.77;3.30;;;;;;;;;;5095022;28;20975;-79
2023/07/14 05:06:36;;;;;;;4.67;3.27;;;;;;;;;;5096592;28;20398;-79
2023/07/14 05:09:02;;;;;;;7.87;3.70;;;;;;;;;;5094862;28;20414;-79
2023/07/14 05:11:28;;;;;;;9.00;4.20;;;;;;;;;;5096730;28;20393;-79
2023/07/14 05:13:54;;;;;;;7.90;3.20;;;;;;;;;;5096243;28;20397;-80
2023/07/14 05:16:21;;;;;;;4.33;2.97;;;;;;;;;;5096293;28;20460;-79
2023/07/14 05:18:47;;;;;;;5.33;3.63;;;;;;;;;;5095622;28;20861;-80
2023/07/14 05:21:13;;;;;;;8.17;3.63;;;;;;;;;;5094939;28;20425;-79
2023/07/14 05:23:39;;;;;;;4.90;2.80;;;;;;;;;;5078020;28;20440;-79
2023/07/14 05:26:05;;;;;;;4.97;3.20;;;;;;;;;;5095723;28;20365;-79
2023/07/14 05:28:31;;;;;;;7.13;3.70;;;;;;;;;;5096137;28;20457;-79
2023/07/14 05:30:58;;;;;;;5.10;3.63;;;;;;;;;;5094230;28;20430;-80
2023/07/14 05:33:24;;;;;;;3.37;2.90;;;;;;;;;;5094668;28;20389;-79
2023/07/14 05:35:50;;;;;;;3.80;3.10;;;;;;;;;;5093898;28;20458;-80
2023/07/14 05:38:17;;;;;;;4.33;2.60;;;;;;;;;;5094806;28;20380;-79
2023/07/14 05:40:43;;;;;;;5.47;3.30;;;;;;;;;;5095776;28;20380;-79
2023/07/14 05:43:09;;;;;;;3.37;2.77;;;;;;;;;;5093958;28;20553;-79
2023/07/14 05:45:35;;;;;;;6.53;3.37;;;;;;;;;;5095823;28;20441;-79
2023/07/14 05:48:01;;;;;;;7.73;3.10;;;;;;;;;;5093830;28;20422;-80
2023/07/14 05:50:30;;;;;;;5.57;3.17;;;;;;;;;;5095274;28;20718;-80
2023/07/14 05:52:56;;;;;;;6.97;3.10;;;;;;;;;;5093876;28;20452;-79
2023/07/14 05:55:22;;;;;;;3.60;2.70;;;;;;;;;;5094897;28;20418;-79
2023/07/14 05:57:48;;;;;;;5.73;3.43;;;;;;;;;;5093879;28;20524;-81
2023/07/14 06:00:18;;;;;;;4.93;3.20;;;;;;;;;;5093045;28;20491;-80
2023/07/14 06:02:46;;;;;;;4.40;2.90;;;;;;;;;;5093596;28;20377;-79
2023/07/14 06:05:12;;;;;;;4.10;2.60;;;;;;;;;;5095207;28;20378;-80
2023/07/14 06:07:40;;;;;;;7.03;3.53;;;;;;;;;;5077508;28;20888;-79
2023/07/14 06:10:08;;;;;;;4.93;2.70;;;;;;;;;;5096683;28;20853;-80
2023/07/14 06:12:34;;;;;;;3.30;3.00;;;;;;;;;;5096004;28;20513;-79
2023/07/14 06:15:00;;;;;;;6.47;2.83;;;;;;;;;;5093940;28;20397;-79
2023/07/14 06:17:26;;;;;;;8.43;3.27;;;;;;;;;;5095328;28;20403;-79
2023/07/14 06:22:54;;;;;;;6.27;2.97;;;;;;;;;;5071614;28;20546;-81
2023/07/14 06:25:20;;;;;;;5.40;3.30;;;;;;;;;;5053865;28;20793;-81
2023/07/14 06:27:46;;;;;;;3.30;2.30;;;;;;;;;;5070873;28;20465;-81
2023/07/14 06:30:13;;;;;;;3.37;3.07;;;;;;;;;;5052881;28;20900;-86
2023/07/14 06:32:39;;;;;;;4.63;3.00;;;;;;;;;;5069771;28;20438;-86
2023/07/14 06:35:06;;;;;;;4.47;2.60;;;;;;;;;;5053136;28;20926;-86
2023/07/14 06:37:32;;;;;;;6.87;2.60;;;;;;;;;;5053415;28;20926;-86
2023/07/14 06:39:58;;;;;;;4.93;3.13;;;;;;;;;;5069401;28;20393;-85
2023/07/14 06:42:24;;;;;;;4.33;2.30;;;;;;;;;;5069617;28;20970;-86
2023/07/14 06:44:50;;;;;;;4.20;2.50;;;;;;;;;;5069823;28;20773;-83
2023/07/14 06:47:16;;;;;;;3.60;2.70;;;;;;;;;;5053316;28;20415;-84
2023/07/14 06:49:42;;;;;;;5.90;2.73;;;;;;;;;;5069807;28;20404;-80
2023/07/14 06:52:08;;;;;;;5.10;2.97;;;;;;;;;;5070189;28;20422;-85
2023/07/14 06:54:34;;;;;;;4.00;2.77;;;;;;;;;;5070833;28;20400;-85
2023/07/14 06:57:00;;;;;;;3.37;2.40;;;;;;;;;;5052889;28;20447;-86
2023/07/14 06:59:26;;;;;;;3.27;2.17;;;;;;;;;;5070016;28;20398;-87
2023/07/14 07:01:52;;;;;;;2.33;2.13;;;;;;;;;;5080275;28;20422;-86
2023/07/14 07:04:18;;;;;;;4.83;2.60;;;;;;;;;;5093105;28;20433;-88
2023/07/14 07:06:44;;;;;;;10.47;2.80;;;;;;;;;;5081664;28;20926;-89
2023/07/14 07:09:10;;;;;;;6.30;2.80;;;;;;;;;;5071698;28;20395;-87
2023/07/14 07:11:36;;;;;;;4.50;2.10;;;;;;;;;;5070378;28;20418;-86
2023/07/14 07:14:02;;;;;;;6.13;2.17;;;;;;;;;;5053244;28;20488;-87
2023/07/14 07:16:28;;;;;;;4.90;2.70;;;;;;;;;;5068459;28;20455;-89
2023/07/14 07:18:55;;;;;;;2.43;1.83;;;;;;;;;;5067902;28;20431;-86
2023/07/14 07:21:21;;;;;;;4.40;2.30;;;;;;;;;;5068460;28;20988;-87
2023/07/14 07:23:47;;;;;;;3.80;2.40;;;;;;;;;;5052378;28;20814;-87
2023/07/14 07:26:13;;;;;;;4.67;2.17;;;;;;;;;;5068821;28;20393;-88
2023/07/14 07:28:39;;;;;;;3.43;2.77;;;;;;;;;;5075723;28;20383;-88
2023/07/14 07:31:11;;;;;;;7.03;2.30;;;;;;;;;;5069074;28;20879;-87
2023/07/14 07:33:41;;;;;;;5.20;3.30;;;;;;;;;;5075618;28;20473;-87
2023/07/14 07:36:16;;;;;;;4.10;2.70;;;;;;;;;;5055473;28;20387;-88
2023/07/14 07:38:43;;;;;;;3.67;2.00;;;;;;;;;;5056029;28;20423;-87
2023/07/14 07:41:10;;;;;;;5.73;2.00;;;;;;;;;;5055590;28;20787;-88
2023/07/14 07:43:37;;;;;;;4.50;2.40;;;;;;;;;;5055644;28;20387;-87
2023/07/14 07:46:03;;;;;;;4.13;2.53;;;;;;;;;;5055065;28;20411;-86
2023/07/14 07:48:29;;;;;;;2.63;1.80;;;;;;;;;;5066174;28;20415;-87
2023/07/14 07:50:55;;;;;;;3.63;2.20;;;;;;;;;;5075215;28;20501;-86
2023/07/14 07:53:21;;;;;;;7.90;2.53;;;;;;;;;;5075508;28;20407;-87
2023/07/14 07:55:54;;;;;;;3.90;2.20;;;;;;;;;;5075774;28;20381;-89
2023/07/14 07:58:24;;;;;;;3.50;2.20;;;;;;;;;;5075769;28;20464;-88
2023/07/14 08:00:52;;;;;;;6.03;2.33;;;;;;;;;;5075680;28;20426;-89
2023/07/14 08:03:18;;;;;;;2.70;1.50;;;;;;;;;;5068708;28;20577;-86
2023/07/14 08:05:45;;;;;;;4.17;2.50;;;;;;;;;;5058984;28;20519;-88
2023/07/14 08:08:11;;;;;;;6.03;3.00;;;;;;;;;;5060207;28;20419;-88
2023/07/14 08:10:45;;;;;;;5.97;2.00;;;;;;;;;;5077935;28;20419;-89
2023/07/14 08:13:12;;;;;;;2.67;2.00;;;;;;;;;;5063734;28;20853;-87
2023/07/14 08:15:38;;;;;;;6.33;2.53;;;;;;;;;;5039019;28;20792;-87
2023/07/14 08:18:06;;;;;;;6.30;2.63;;;;;;;;;;5054854;28;20498;-87
2023/07/14 08:20:32;;;;;;;7.47;2.20;;;;;;;;;;5054487;28;20896;-87
2023/07/14 08:22:58;;;;;;;5.83;2.20;;;;;;;;;;5056921;28;20408;-87
2023/07/14 08:25:24;;;;;;;7.03;2.57;;;;;;;;;;5071211;28;20785;-88
2023/07/14 08:27:50;;;;;;;7.73;2.27;;;;;;;;;;5074511;28;20414;-88
2023/07/14 08:30:16;;;;;;;3.50;2.10;;;;;;;;;;5074186;28;20494;-88
2023/07/14 08:32:42;;;;;;;3.77;2.47;;;;;;;;;;5074369;28;20502;-89
2023/07/14 08:35:09;;;;;;;4.53;2.30;;;;;;;;;;5067215;28;20450;-88
2023/07/14 08:37:35;;;;;;;4.87;1.90;;;;;;;;;;5053961;28;20419;-87
2023/07/14 08:40:02;;;;;;;4.27;2.40;;;;;;;;;;5037348;28;20515;-88
2023/07/14 08:42:39;;;;;;;3.63;1.77;;;;;;;;;;5053950;28;20495;-88
2023/07/14 08:45:07;;;;;;;4.13;1.73;;;;;;;;;;5052768;28;20473;-87
2023/07/14 08:47:38;;;;;;;4.23;2.13;;;;;;;;;;5054061;28;20837;-87
2023/07/14 08:50:08;;;;;;;2.90;1.87;;;;;;;;;;5056622;28;20439;-86
2023/07/14 08:52:35;;;;;;;3.37;1.93;;;;;;;;;;5060225;28;21239;-88
2023/07/14 08:55:12;;;;;;;3.20;1.90;;;;;;;;;;5053914;28;20903;-87
2023/07/14 08:57:55;;;;;;;4.30;2.20;;;;;;;;;;5053914;28;20424;-89
2023/07/14 09:00:26;;;;;;;3.00;2.33;;;;;;;;;;5054303;28;20466;-90
2023/07/14 09:02:55;;;;;;;3.90;1.80;;;;;;;;;;5054582;28;20541;-89
2023/07/14 09:05:24;;;;;;;2.13;1.60;;;;;;;;;;5053644;28;20416;-89
2023/07/14 09:07:51;;;;;;;4.77;2.20;;;;;;;;;;5053797;28;20420;-89
2023/07/14 09:10:17;;;;;;;9.13;1.90;;;;;;;;;;5053961;28;20467;-91
2023/07/14 09:12:54;;;;;;;3.57;2.40;;;;;;;;;;5056443;28;20467;-92
2023/07/14 09:15:24;;;;;;;2.00;1.70;;;;;;;;;;5055326;28;20492;-90
2023/07/14 09:18:08;;;;;;;2.80;2.00;;;;;;;;;;5054487;28;20447;-88
2023/07/14 09:20:41;;;;;;;5.40;2.40;;;;;;;;;;5056309;28;20491;-91
2023/07/14 09:23:21;;;;;;;5.03;2.20;;;;;;;;;;5054589;28;20509;-90
2023/07/14 09:25:56;;;;;;;7.17;1.90;;;;;;;;;;5054188;28;20447;-92
2023/07/14 09:28:29;;;;;;;2.60;2.10;;;;;;;;;;5053729;28;20449;-95
2023/07/14 09:30:57;;;;;;;2.63;2.00;;;;;;;;;;5054974;28;20475;-90
2023/07/14 09:33:23;;;;;;;3.43;2.10;;;;;;;;;;5054203;28;20557;-92
2023/07/14 09:35:50;;;;;;;3.30;1.87;;;;;;;;;;5054387;28;20815;-93
2023/07/14 09:38:21;;;;;;;4.23;2.30;;;;;;;;;;5054398;28;20406;-87
2023/07/14 09:40:49;;;;;;;4.07;2.10;;;;;;;;;;5054169;28;20817;-93
2023/07/14 09:43:15;;;;;;;2.20;1.70;;;;;;;;;;5056774;28;20428;-95
2023/07/14 09:45:41;;;;;;;2.70;2.17;;;;;;;;;;5054736;28;20419;-91
2023/07/14 09:48:18;;;;;;;2.63;2.20;;;;;;;;;;5055188;28;20432;-91
2023/07/14 09:50:56;;;;;;;2.93;2.07;;;;;;;;;;5053484;28;20528;-89
2023/07/14 09:53:22;;;;;;;3.90;2.07;;;;;;;;;;5055150;28;20416;-89
2023/07/14 09:55:55;;;;;;;2.23;2.03;;;;;;;;;;5053875;28;20875;-89
2023/07/14 09:58:22;;;;;;;4.70;2.03;;;;;;;;;;5054210;28;20424;-92
2023/07/14 10:00:49;;;;;;;2.73;1.80;;;;;;;;;;5055955;28;20457;-92
2023/07/14 10:03:16;;;;;;;4.10;2.33;;;;;;;;;;5057172;28;20435;-90
2023/07/14 10:05:53;;;;;;;6.77;1.90;;;;;;;;;;5057180;28;20423;-94
2023/07/14 10:08:30;;;;;;;3.70;2.37;;;;;;;;;;5057722;28;20811;-92
2023/07/14 10:10:58;;;;;;;2.97;2.07;;;;;;;;;;5058163;28;20466;-91
2023/07/14 10:13:31;;;;;;;2.50;2.00;;;;;;;;;;5059457;28;20427;-94
2023/07/14 10:16:17;;;;;;;4.00;2.07;;;;;;;;;;5061668;28;20401;-94
2023/07/14 10:18:50;;;;;;;4.20;2.57;;;;;;;;;;5056652;28;20919;-90
2023/07/14 10:21:22;;;;;;;3.50;1.87;;;;;;;;;;5054912;28;20636;-89
2023/07/14 10:23:56;;;;;;;3.07;2.00;;;;;;;;;;5055709;28;20419;-92
2023/07/14 10:26:23;;;;;;;2.50;2.07;;;;;;;;;;5057783;28;20440;-92
2023/07/14 10:28:51;;;;;;;3.10;2.10;;;;;;;;;;5055233;28;20420;-90
2023/07/14 10:31:24;;;;;;;2.50;1.80;;;;;;;;;;5056001;28;20455;-91
2023/07/14 10:34:13;;;;;;;2.80;2.17;;;;;;;;;;5055784;28;20824;-92
2023/07/14 10:36:40;;;;;;;3.77;1.80;;;;;;;;;;5059435;28;20846;-91
2023/07/14 10:39:22;;;;;;;4.00;1.80;;;;;;;;;;5058669;28;20415;-88
2023/07/14 10:41:48;;;;;;;3.10;2.23;;;;;;;;;;5059694;28;20424;-93
2023/07/14 10:44:23;;;;;;;5.20;2.00;;;;;;;;;;5057587;28;20420;-95
2023/07/14 10:46:53;;;;;;;3.80;1.90;;;;;;;;;;5059556;28;20391;-94
2023/07/14 10:49:31;;;;;;;2.13;1.93;;;;;;;;;;5060002;28;20416;-93
2023/07/14 10:51:59;;;;;;;2.10;1.90;;;;;;;;;;5061700;28;20467;-92
2023/07/14 10:54:31;;;;;;;2.03;1.70;;;;;;;;;;5059690;28;20928;-95
2023/07/14 10:59:41;;;;;;;3.27;2.37;;;;;;;;;;5043719;22;20591;-94
2023/07/14 11:02:17;;;;;;;2.27;1.90;;;;;;;;;;5039092;28;20523;-90
2023/07/14 11:04:47;;;;;;;6.00;2.60;;;;;;;;;;5040234;28;20424;-91
2023/07/14 11:07:17;;;;;;;3.30;2.00;;;;;;;;;;5038033;28;20420;-91
2023/07/14 11:09:43;;;;;;;2.33;1.97;;;;;;;;;;5045315;28;20417;-91
2023/07/14 11:12:22;;;;;;;5.53;2.70;;;;;;;;;;5041685;28;20483;-87
2023/07/14 11:14:51;;;;;;;6.23;2.70;;;;;;;;;;5039582;28;20788;-89
2023/07/14 11:17:22;;;;;;;3.90;2.40;;;;;;;;;;5039310;28;20427;-85
2023/07/14 11:20:08;;;;;;;4.70;2.70;;;;;;;;;;5037610;28;20421;-86
2023/07/14 11:22:53;;;;;;;2.73;2.37;;;;;;;;;;5035479;28;20416;-86
2023/07/14 11:25:26;;;;;;;5.03;2.33;;;;;;;;;;5035570;28;20496;-89
2023/07/14 11:28:00;;;;;;;3.50;2.10;;;;;;;;;;5036274;28;20451;-90
2023/07/14 11:30:26;;;;;;;3.03;2.23;;;;;;;;;;5035524;28;20421;-89
2023/07/14 11:33:03;;;;;;;3.30;2.30;;;;;;;;;;5034973;28;20456;-85
2023/07/14 11:35:29;;;;;;;3.97;2.57;;;;;;;;;;5035128;28;20432;-85
2023/07/14 11:38:07;;;;;;;4.10;2.63;;;;;;;;;;5035670;28;20424;-86
2023/07/14 11:40:40;;;;;;;3.53;2.80;;;;;;;;;;5037255;28;20452;-86
2023/07/14 11:43:10;;;;;;;2.90;2.57;;;;;;;;;;5037247;28;20753;-85
2023/07/14 11:45:37;;;;;;;3.10;2.50;;;;;;;;;;5035914;28;20467;-87
2023/07/14 11:48:06;;;;;;;3.37;2.13;;;;;;;;;;5036123;28;20791;-88
2023/07/14 11:50:34;;;;;;;6.90;2.63;;;;;;;;;;5019525;28;20405;-87
2023/07/14 11:53:07;;;;;;;3.20;2.77;;;;;;;;;;5037054;28;20480;-89
2023/07/14 11:55:36;;;;;;;5.97;2.70;;;;;;;;;;5035315;28;21023;-89
2023/07/14 11:58:16;;;;;;;3.20;2.90;;;;;;;;;;5034877;28;20504;-88
2023/07/14 12:00:45;;;;;;;3.37;2.30;;;;;;;;;;5035337;28;20425;-88
2023/07/14 12:03:29;;;;;;;4.50;2.60;;;;;;;;;;5035399;28;20421;-89
2023/07/14 12:06:14;;;;;;;3.87;2.97;;;;;;;;;;5036348;28;20381;-89
2023/07/14 12:08:41;;;;;;;7.97;3.03;;;;;;;;;;5038362;28;20427;-89
2023/07/14 12:11:27;;;;;;;3.40;2.43;;;;;;;;;;5036068;28;20824;-89
2023/07/14 12:13:53;;;;;;;6.90;2.77;;;;;;;;;;5035037;28;20463;-88
2023/07/14 12:16:24;;;;;;;6.33;2.37;;;;;;;;;;5034886;28;20413;-89
2023/07/14 12:19:04;;;;;;;3.30;2.63;;;;;;;;;;5036229;28;20393;-90
2023/07/14 12:21:42;;;;;;;4.20;2.40;;;;;;;;;;5035736;28;20409;-90
2023/07/14 12:24:18;;;;;;;3.03;2.40;;;;;;;;;;5034763;28;20917;-88
2023/07/14 12:26:46;;;;;;;3.20;2.10;;;;;;;;;;5034324;28;20432;-86
2023/07/14 12:29:14;;;;;;;3.70;2.60;;;;;;;;;;5034415;28;20434;-87
2023/07/14 12:31:40;;;;;;;4.30;2.47;;;;;;;;;;5034557;28;20470;-89
2023/07/14 12:34:14;;;;;;;3.60;2.73;;;;;;;;;;5035922;28;20409;-87
2023/07/14 12:36:42;;;;;;;4.80;2.30;;;;;;;;;;5034778;28;20413;-85
2023/07/14 12:39:08;;;;;;;3.43;2.30;;;;;;;;;;5034647;28;20421;-86
2023/07/14 12:41:35;;;;;;;4.27;2.43;;;;;;;;;;5034425;28;20982;-86
2023/07/14 12:44:02;;;;;;;3.03;2.67;;;;;;;;;;5034897;28;20862;-88
2023/07/14 12:46:31;;;;;;;4.40;1.90;;;;;;;;;;5036109;28;20415;-88
2023/07/14 12:49:02;;;;;;;4.77;2.50;;;;;;;;;;5034410;28;20432;-88
2023/07/14 12:51:29;;;;;;;2.83;2.30;;;;;;;;;;5034559;28;20514;-88
2023/07/14 12:54:00;;;;;;;4.37;2.20;;;;;;;;;;5035832;28;20405;-88
2023/07/14 12:56:28;;;;;;;3.97;2.63;;;;;;;;;;5035183;28;20757;-88
2023/07/14 12:58:55;;;;;;;3.70;2.50;;;;;;;;;;5034897;28;20512;-88
2023/07/14 13:01:21;;;;;;;2.90;1.93;;;;;;;;;;5035184;28;20409;-87
2023/07/14 13:03:47;;;;;;;3.70;2.43;;;;;;;;;;5034516;28;20414;-86
2023/07/14 13:06:17;;;;;;;3.67;2.50;;;;;;;;;;5034683;28;20464;-85
2023/07/14 13:08:49;;;;;;;2.77;2.13;;;;;;;;;;5035149;28;20412;-89
2023/07/14 13:11:21;;;;;;;2.47;2.10;;;;;;;;;;5035396;28;20453;-90
2023/07/14 13:13:51;;;;;;;2.80;1.90;;;;;;;;;;5033824;28;20425;-86
2023/07/14 13:16:17;;;;;;;4.17;2.77;;;;;;;;;;5033223;28;20492;-87
2023/07/14 13:18:53;;;;;;;5.00;2.30;;;;;;;;;;5034276;28;20413;-89
2023/07/14 13:21:35;;;;;;;3.50;2.33;;;;;;;;;;5034211;28;20496;-85
2023/07/14 13:24:10;;;;;;;2.63;2.00;;;;;;;;;;5033828;28;20470;-86
2023/07/14 13:27:06;;;;;;;3.17;2.10;;;;;;;;;;5033851;28;20400;-86
2023/07/14 13:29:33;;;;;;;2.87;2.10;;;;;;;;;;5013924;28;20432;-88
2023/07/14 13:32:11;;;;;;;4.00;2.40;;;;;;;;;;5032907;28;20464;-89
2023/07/14 13:34:40;;;;;;;8.87;2.30;;;;;;;;;;5034140;28;20412;-89
2023/07/14 13:37:06;;;;;;;1.90;1.67;;;;;;;;;;5033837;28;20413;-89
2023/07/14 13:39:44;;;;;;;4.50;1.97;;;;;;;;;;5033654;28;20417;-90
2023/07/14 13:42:39;;;;;;;2.90;2.03;;;;;;;;;;5035084;28;20744;-88
2023/07/14 13:45:16;;;;;;;3.57;1.73;;;;;;;;;;5008160;28;20409;-88
2023/07/14 13:48:03;;;;;;;3.43;2.23;;;;;;;;;;5033722;28;20405;-90
2023/07/14 13:50:30;;;;;;;6.60;2.27;;;;;;;;;;5033516;28;20775;-86
2023/07/14 13:52:57;;;;;;;4.07;1.90;;;;;;;;;;5034040;28;20456;-88
2023/07/14 13:55:29;;;;;;;3.80;1.80;;;;;;;;;;5032945;28;20421;-86
2023/07/14 13:57:55;;;;;;;7.37;2.03;;;;;;;;;;5034563;28;20495;-88
2023/07/14 14:00:22;;;;;;;6.03;1.90;;;;;;;;;;5034851;28;20496;-89
2023/07/14 14:02:50;;;;;;;3.33;2.03;;;;;;;;;;5033917;28;20851;-88
2023/07/14 14:05:20;;;;;;;1.90;1.70;;;;;;;;;;5033211;28;20893;-85
2023/07/14 14:07:47;;;;;;;2.90;1.80;;;;;;;;;;5035551;28;20424;-83
2023/07/14 14:10:15;;;;;;;5.77;2.20;;;;;;;;;;5042859;28;20417;-88
2023/07/14 14:12:41;;;;;;;3.50;1.70;;;;;;;;;;5042960;28;20456;-86
2023/07/14 14:15:07;;;;;;;5.57;1.97;;;;;;;;;;5025917;28;20428;-88
2023/07/14 14:17:35;;;;;;;5.37;1.83;;;;;;;;;;5035739;28;20443;-86
2023/07/14 14:20:05;;;;;;;3.30;2.17;;;;;;;;;;5034539;28;20424;-87
2023/07/14 14:22:32;;;;;;;2.80;1.70;;;;;;;;;;5034903;28;20462;-89
2023/07/14 14:25:01;;;;;;;3.17;1.83;;;;;;;;;;5034270;28;20421;-90
2023/07/14 14:27:27;;;;;;;4.03;2.13;;;;;;;;;;5033958;28;20830;-90
2023/07/14 14:29:55;;;;;;;5.23;1.87;;;;;;;;;;5034878;28;20401;-90
2023/07/14 14:32:24;;;;;;;3.33;1.60;;;;;;;;;;5034666;28;20809;-89
2023/07/14 14:34:51;;;;;;;5.97;1.87;;;;;;;;;;5033294;28;20417;-87
2023/07/14 14:37:18;;;;;;;2.00;1.67;;;;;;;;;;5035029;28;20772;-90
2023/07/14 14:39:46;;;;;;;3.20;1.97;;;;;;;;;;5033930;28;20416;-91
2023/07/14 14:42:14;;;;;;;3.47;1.90;;;;;;;;;;5034502;28;20420;-91
2023/07/14 14:44:40;;;;;;;4.30;1.50;;;;;;;;;;5037894;28;20412;-91
2023/07/14 14:47:09;;;;;;;4.10;1.87;;;;;;;;;;5038514;28;20424;-90
2023/07/14 14:49:37;;;;;;;2.40;1.70;;;;;;;;;;5036881;28;20509;-90
2023/07/14 14:52:05;;;;;;;2.43;1.83;;;;;;;;;;5036663;28;20456;-91
2023/07/14 14:54:31;;;;;;;4.47;1.83;;;;;;;;;;5036383;28;20417;-89
2023/07/14 14:56:59;;;;;;;4.93;2.10;;;;;;;;;;5036300;28;20454;-89
2023/07/14 14:59:26;;;;;;;5.17;1.80;;;;;;;;;;5037284;28;20456;-89